sensor_id;sensor_type;location;lat;lon;timestamp;pressure;altitude;pressure_sealevel;temperature
73761;BMP280;69240;43.530;-5.646;2023-05-15T00:00:04;102237.63;;;16.27
73761;BMP280;69240;43.530;-5.646;2023-05-15T00:02:31;102237.63;;;16.27
73761;BMP280;69240;43.530;-5.646;2023-05-15T00:04:59;102242.88;;;16.30
73761;BMP280;69240;43.530;-5.646;2023-05-15T00:07:24;102237.31;;;16.34
73761;BMP280;69240;43.530;-5.646;2023-05-15T00:09:50;102235.22;;;16.29
73761;BMP280;69240;43.530;-5.646;2023-05-15T00:12:15;102237.78;;;16.23
73761;BMP280;69240;43.530;-5.646;2023-05-15T00:14:41;102228.75;;;16.26
73761;BMP280;69240;43.530;-5.646;2023-05-15T00:17:07;102232.56;;;16.20
73761;BMP280;69240;43.530;-5.646;2023-05-15T00:19:34;102232.25;;;16.18
73761;BMP280;69240;43.530;-5.646;2023-05-15T00:21:59;102229.22;;;16.25
73761;BMP280;69240;43.530;-5.646;2023-05-15T00:24:25;102230.72;;;16.26
73761;BMP280;69240;43.530;-5.646;2023-05-15T00:26:51;102231.66;;;16.23
73761;BMP280;69240;43.530;-5.646;2023-05-15T00:29:16;102222.66;;;16.17
73761;BMP280;69240;43.530;-5.646;2023-05-15T00:31:42;102219.06;;;16.20
73761;BMP280;69240;43.530;-5.646;2023-05-15T00:34:07;102223.00;;;16.10
73761;BMP280;69240;43.530;-5.646;2023-05-15T00:36:33;102218.75;;;16.18
73761;BMP280;69240;43.530;-5.646;2023-05-15T00:38:58;102213.34;;;16.18
73761;BMP280;69240;43.530;-5.646;2023-05-15T00:41:25;102217.28;;;16.17
73761;BMP280;69240;43.530;-5.646;2023-05-15T00:43:54;102215.00;;;16.15
73761;BMP280;69240;43.530;-5.646;2023-05-15T00:46:20;102219.06;;;16.11
73761;BMP280;69240;43.530;-5.646;2023-05-15T00:48:48;102219.69;;;16.15
73761;BMP280;69240;43.530;-5.646;2023-05-15T00:51:15;102225.22;;;16.11
73761;BMP280;69240;43.530;-5.646;2023-05-15T00:53:42;102217.00;;;16.06
73761;BMP280;69240;43.530;-5.646;2023-05-15T00:56:10;102218.16;;;16.14
73761;BMP280;69240;43.530;-5.646;2023-05-15T00:58:37;102207.03;;;16.21
73761;BMP280;69240;43.530;-5.646;2023-05-15T01:01:02;102212.75;;;16.14
73761;BMP280;69240;43.530;-5.646;2023-05-15T01:03:28;102200.81;;;16.06
73761;BMP280;69240;43.530;-5.646;2023-05-15T01:05:54;102204.53;;;16.08
73761;BMP280;69240;43.530;-5.646;2023-05-15T01:08:42;102206.81;;;16.01
73761;BMP280;69240;43.530;-5.646;2023-05-15T01:11:08;102203.78;;;16.08
73761;BMP280;69240;43.530;-5.646;2023-05-15T01:13:34;102203.06;;;16.07
73761;BMP280;69240;43.530;-5.646;2023-05-15T01:16:00;102204.69;;;16.05
73761;BMP280;69240;43.530;-5.646;2023-05-15T01:18:25;102202.28;;;16.07
73761;BMP280;69240;43.530;-5.646;2023-05-15T01:23:43;102196.09;;;16.15
73761;BMP280;69240;43.530;-5.646;2023-05-15T01:29:12;102186.66;;;16.11
73761;BMP280;69240;43.530;-5.646;2023-05-15T01:31:41;102191.16;;;16.14
73761;BMP280;69240;43.530;-5.646;2023-05-15T01:34:09;102190.25;;;16.17
73761;BMP280;69240;43.530;-5.646;2023-05-15T01:36:40;102183.38;;;16.07
73761;BMP280;69240;43.530;-5.646;2023-05-15T01:39:09;102177.41;;;16.03
73761;BMP280;69240;43.530;-5.646;2023-05-15T01:41:45;102188.34;;;16.08
73761;BMP280;69240;43.530;-5.646;2023-05-15T01:46:48;102182.19;;;16.08
73761;BMP280;69240;43.530;-5.646;2023-05-15T01:49:18;102186.09;;;16.07
73761;BMP280;69240;43.530;-5.646;2023-05-15T01:51:46;102181.91;;;16.06
73761;BMP280;69240;43.530;-5.646;2023-05-15T01:54:14;102181.25;;;16.11
73761;BMP280;69240;43.530;-5.646;2023-05-15T01:56:40;102180.69;;;16.07
73761;BMP280;69240;43.530;-5.646;2023-05-15T01:59:11;102178.88;;;16.13
73761;BMP280;69240;43.530;-5.646;2023-05-15T02:01:38;102179.19;;;16.06
73761;BMP280;69240;43.530;-5.646;2023-05-15T02:04:04;102176.34;;;16.00
73761;BMP280;69240;43.530;-5.646;2023-05-15T02:06:31;102169.28;;;16.03
73761;BMP280;69240;43.530;-5.646;2023-05-15T02:09:00;102174.41;;;16.01
73761;BMP280;69240;43.530;-5.646;2023-05-15T02:11:26;102170.06;;;16.03
73761;BMP280;69240;43.530;-5.646;2023-05-15T02:13:54;102162.41;;;16.02
73761;BMP280;69240;43.530;-5.646;2023-05-15T02:16:21;102163.63;;;16.01
73761;BMP280;69240;43.530;-5.646;2023-05-15T02:18:46;102165.56;;;16.00
73761;BMP280;69240;43.530;-5.646;2023-05-15T02:21:12;102159.41;;;16.00
73761;BMP280;69240;43.530;-5.646;2023-05-15T02:23:38;102161.25;;;15.94
73761;BMP280;69240;43.530;-5.646;2023-05-15T02:29:04;102163.94;;;15.94
73761;BMP280;69240;43.530;-5.646;2023-05-15T02:31:39;102163.06;;;15.88
73761;BMP280;69240;43.530;-5.646;2023-05-15T02:36:46;102159.00;;;15.92
73761;BMP280;69240;43.530;-5.646;2023-05-15T02:39:14;102155.84;;;15.94
73761;BMP280;69240;43.530;-5.646;2023-05-15T02:41:41;102154.03;;;15.91
73761;BMP280;69240;43.530;-5.646;2023-05-15T02:44:08;102153.94;;;15.85
73761;BMP280;69240;43.530;-5.646;2023-05-15T02:46:36;102147.16;;;15.90
73761;BMP280;69240;43.530;-5.646;2023-05-15T02:49:02;102136.47;;;15.95
73761;BMP280;69240;43.530;-5.646;2023-05-15T02:51:28;102132.00;;;15.92
73761;BMP280;69240;43.530;-5.646;2023-05-15T02:53:54;102141.16;;;15.86
73761;BMP280;69240;43.530;-5.646;2023-05-15T02:56:19;102142.38;;;15.85
73761;BMP280;69240;43.530;-5.646;2023-05-15T02:58:45;102137.31;;;15.78
73761;BMP280;69240;43.530;-5.646;2023-05-15T03:01:11;102130.13;;;15.66
73761;BMP280;69240;43.530;-5.646;2023-05-15T03:03:36;102129.38;;;15.65
73761;BMP280;69240;43.530;-5.646;2023-05-15T03:06:02;102123.69;;;15.63
73761;BMP280;69240;43.530;-5.646;2023-05-15T03:08:27;102142.13;;;15.65
73761;BMP280;69240;43.530;-5.646;2023-05-15T03:10:53;102137.66;;;15.62
73761;BMP280;69240;43.530;-5.646;2023-05-15T03:13:19;102135.66;;;15.62
73761;BMP280;69240;43.530;-5.646;2023-05-15T03:15:44;102134.03;;;15.65
73761;BMP280;69240;43.530;-5.646;2023-05-15T03:18:10;102137.47;;;15.65
73761;BMP280;69240;43.530;-5.646;2023-05-15T03:20:35;102133.44;;;15.61
73761;BMP280;69240;43.530;-5.646;2023-05-15T03:23:01;102135.22;;;15.64
73761;BMP280;69240;43.530;-5.646;2023-05-15T03:25:26;102138.84;;;15.61
73761;BMP280;69240;43.530;-5.646;2023-05-15T03:27:52;102146.47;;;15.62
73761;BMP280;69240;43.530;-5.646;2023-05-15T03:30:17;102136.88;;;15.70
73761;BMP280;69240;43.530;-5.646;2023-05-15T03:32:43;102136.09;;;15.70
73761;BMP280;69240;43.530;-5.646;2023-05-15T03:35:08;102133.44;;;15.61
73761;BMP280;69240;43.530;-5.646;2023-05-15T03:37:34;102146.38;;;15.57
73761;BMP280;69240;43.530;-5.646;2023-05-15T03:40:00;102145.44;;;15.60
73761;BMP280;69240;43.530;-5.646;2023-05-15T03:42:25;102148.44;;;15.53
73761;BMP280;69240;43.530;-5.646;2023-05-15T03:44:52;102142.31;;;15.52
73761;BMP280;69240;43.530;-5.646;2023-05-15T03:47:17;102135.25;;;15.55
73761;BMP280;69240;43.530;-5.646;2023-05-15T03:49:44;102134.69;;;15.51
73761;BMP280;69240;43.530;-5.646;2023-05-15T03:52:10;102133.00;;;15.53
73761;BMP280;69240;43.530;-5.646;2023-05-15T03:54:36;102139.13;;;15.63
73761;BMP280;69240;43.530;-5.646;2023-05-15T03:57:01;102129.88;;;15.55
73761;BMP280;69240;43.530;-5.646;2023-05-15T03:59:29;102132.56;;;15.55
73761;BMP280;69240;43.530;-5.646;2023-05-15T04:01:54;102138.00;;;15.46
73761;BMP280;69240;43.530;-5.646;2023-05-15T04:04:20;102139.16;;;15.45
73761;BMP280;69240;43.530;-5.646;2023-05-15T04:06:45;102146.09;;;15.46
73761;BMP280;69240;43.530;-5.646;2023-05-15T04:09:11;102133.16;;;15.50
73761;BMP280;69240;43.530;-5.646;2023-05-15T04:11:36;102140.50;;;15.58
73761;BMP280;69240;43.530;-5.646;2023-05-15T04:14:02;102132.88;;;15.57
73761;BMP280;69240;43.530;-5.646;2023-05-15T04:16:27;102135.84;;;15.59
73761;BMP280;69240;43.530;-5.646;2023-05-15T04:18:53;102136.28;;;15.66
73761;BMP280;69240;43.530;-5.646;2023-05-15T04:21:18;102135.22;;;15.64
73761;BMP280;69240;43.530;-5.646;2023-05-15T04:23:44;102142.13;;;15.65
73761;BMP280;69240;43.530;-5.646;2023-05-15T04:26:09;102140.66;;;15.55
73761;BMP280;69240;43.530;-5.646;2023-05-15T04:28:35;102152.03;;;15.59
73761;BMP280;69240;43.530;-5.646;2023-05-15T04:31:01;102134.34;;;15.58
73761;BMP280;69240;43.530;-5.646;2023-05-15T04:33:26;102136.16;;;15.52
73761;BMP280;69240;43.530;-5.646;2023-05-15T04:35:52;102130.19;;;15.57
73761;BMP280;69240;43.530;-5.646;2023-05-15T04:38:18;102122.09;;;15.57
73761;BMP280;69240;43.530;-5.646;2023-05-15T04:40:44;102122.81;;;15.48
73761;BMP280;69240;43.530;-5.646;2023-05-15T04:43:09;102114.28;;;15.41
73761;BMP280;69240;43.530;-5.646;2023-05-15T04:45:35;102121.81;;;15.46
73761;BMP280;69240;43.530;-5.646;2023-05-15T04:48:00;102119.38;;;15.48
73761;BMP280;69240;43.530;-5.646;2023-05-15T04:50:27;102123.28;;;15.47
73761;BMP280;69240;43.530;-5.646;2023-05-15T04:52:52;102121.47;;;15.53
73761;BMP280;69240;43.530;-5.646;2023-05-15T04:55:18;102121.91;;;15.51
73761;BMP280;69240;43.530;-5.646;2023-05-15T04:57:45;102122.38;;;15.50
73761;BMP280;69240;43.530;-5.646;2023-05-15T05:00:11;102114.91;;;15.45
73761;BMP280;69240;43.530;-5.646;2023-05-15T05:02:38;102122.69;;;15.43
73761;BMP280;69240;43.530;-5.646;2023-05-15T05:05:05;102121.81;;;15.46
73761;BMP280;69240;43.530;-5.646;2023-05-15T05:07:34;102124.94;;;15.44
73761;BMP280;69240;43.530;-5.646;2023-05-15T05:10:00;102120.00;;;15.34
73761;BMP280;69240;43.530;-5.646;2023-05-15T05:12:26;102121.81;;;15.46
73761;BMP280;69240;43.530;-5.646;2023-05-15T05:14:51;102124.16;;;15.53
73761;BMP280;69240;43.530;-5.646;2023-05-15T05:17:17;102128.38;;;15.54
73761;BMP280;69240;43.530;-5.646;2023-05-15T05:19:43;102131.97;;;15.42
73761;BMP280;69240;43.530;-5.646;2023-05-15T05:22:09;102124.19;;;15.44
73761;BMP280;69240;43.530;-5.646;2023-05-15T05:24:35;102125.69;;;15.45
73761;BMP280;69240;43.530;-5.646;2023-05-15T05:27:02;102122.38;;;15.41
73761;BMP280;69240;43.530;-5.646;2023-05-15T05:29:30;102114.94;;;15.27
73761;BMP280;69240;43.530;-5.646;2023-05-15T05:31:56;102123.63;;;15.22
73761;BMP280;69240;43.530;-5.646;2023-05-15T05:34:22;102130.50;;;15.23
73761;BMP280;69240;43.530;-5.646;2023-05-15T05:36:48;102134.41;;;15.22
73761;BMP280;69240;43.530;-5.646;2023-05-15T05:39:14;102127.34;;;15.24
73761;BMP280;69240;43.530;-5.646;2023-05-15T05:41:44;102134.69;;;15.15
73761;BMP280;69240;43.530;-5.646;2023-05-15T05:44:09;102137.69;;;15.17
73761;BMP280;69240;43.530;-5.646;2023-05-15T05:46:35;102132.75;;;15.15
73761;BMP280;69240;43.530;-5.646;2023-05-15T05:49:01;102123.91;;;15.15
73761;BMP280;69240;43.530;-5.646;2023-05-15T05:51:26;102123.31;;;15.11
73761;BMP280;69240;43.530;-5.646;2023-05-15T05:53:52;102127.81;;;15.14
73761;BMP280;69240;43.530;-5.646;2023-05-15T05:56:18;102128.88;;;15.07
73761;BMP280;69240;43.530;-5.646;2023-05-15T05:58:43;102129.00;;;15.04
73761;BMP280;69240;43.530;-5.646;2023-05-15T06:01:09;102129.59;;;15.08
73761;BMP280;69240;43.530;-5.646;2023-05-15T06:03:37;102129.59;;;15.17
73761;BMP280;69240;43.530;-5.646;2023-05-15T06:06:05;102134.25;;;15.25
73761;BMP280;69240;43.530;-5.646;2023-05-15T06:08:31;102136.50;;;15.27
73761;BMP280;69240;43.530;-5.646;2023-05-15T06:11:00;102124.50;;;15.19
73761;BMP280;69240;43.530;-5.646;2023-05-15T06:13:25;102131.25;;;15.32
73761;BMP280;69240;43.530;-5.646;2023-05-15T06:15:51;102133.34;;;15.37
73761;BMP280;69240;43.530;-5.646;2023-05-15T06:18:16;102131.09;;;15.36
73761;BMP280;69240;43.530;-5.646;2023-05-15T06:20:42;102130.63;;;15.37
73761;BMP280;69240;43.530;-5.646;2023-05-15T06:23:08;102138.25;;;15.48
73761;BMP280;69240;43.530;-5.646;2023-05-15T06:25:34;102136.03;;;15.55
73761;BMP280;69240;43.530;-5.646;2023-05-15T06:28:03;102135.84;;;15.59
73761;BMP280;69240;43.530;-5.646;2023-05-15T06:30:28;102134.78;;;15.65
73761;BMP280;69240;43.530;-5.646;2023-05-15T06:32:54;102133.13;;;15.68
73761;BMP280;69240;43.530;-5.646;2023-05-15T06:35:19;102130.44;;;15.68
73761;BMP280;69240;43.530;-5.646;2023-05-15T06:37:48;102134.97;;;15.62
73761;BMP280;69240;43.530;-5.646;2023-05-15T06:40:15;102135.97;;;15.64
73761;BMP280;69240;43.530;-5.646;2023-05-15T06:42:40;102129.53;;;15.71
73761;BMP280;69240;43.530;-5.646;2023-05-15T06:45:06;102129.66;;;15.76
73761;BMP280;69240;43.530;-5.646;2023-05-15T06:47:32;102135.47;;;15.84
73761;BMP280;69240;43.530;-5.646;2023-05-15T06:49:58;102130.69;;;15.88
73761;BMP280;69240;43.530;-5.646;2023-05-15T06:52:24;102135.22;;;16.14
73761;BMP280;69240;43.530;-5.646;2023-05-15T06:54:49;102132.75;;;16.49
73761;BMP280;69240;43.530;-5.646;2023-05-15T06:57:17;102134.75;;;16.63
73761;BMP280;69240;43.530;-5.646;2023-05-15T06:59:42;102138.19;;;16.87
73761;BMP280;69240;43.530;-5.646;2023-05-15T07:02:08;102134.69;;;16.95
73761;BMP280;69240;43.530;-5.646;2023-05-15T07:04:33;102133.09;;;17.03
73761;BMP280;69240;43.530;-5.646;2023-05-15T07:06:59;102126.59;;;17.10
73761;BMP280;69240;43.530;-5.646;2023-05-15T07:09:24;102133.34;;;16.91
73761;BMP280;69240;43.530;-5.646;2023-05-15T07:11:50;102132.19;;;16.83
73761;BMP280;69240;43.530;-5.646;2023-05-15T07:14:16;102135.44;;;16.72
73761;BMP280;69240;43.530;-5.646;2023-05-15T07:16:41;102130.53;;;16.71
73761;BMP280;69240;43.530;-5.646;2023-05-15T07:19:07;102127.34;;;16.72
73761;BMP280;69240;43.530;-5.646;2023-05-15T07:21:33;102136.84;;;16.68
73761;BMP280;69240;43.530;-5.646;2023-05-15T07:23:59;102140.94;;;16.63
73761;BMP280;69240;43.530;-5.646;2023-05-15T07:26:25;102138.69;;;16.62
73761;BMP280;69240;43.530;-5.646;2023-05-15T07:28:50;102136.28;;;16.64
73761;BMP280;69240;43.530;-5.646;2023-05-15T07:31:16;102130.69;;;16.44
73761;BMP280;69240;43.530;-5.646;2023-05-15T07:36:37;102147.31;;;16.75
73761;BMP280;69240;43.530;-5.646;2023-05-15T07:39:02;102141.38;;;16.62
73761;BMP280;69240;43.530;-5.646;2023-05-15T07:41:28;102144.44;;;16.55
73761;BMP280;69240;43.530;-5.646;2023-05-15T07:43:55;102143.50;;;16.58
73761;BMP280;69240;43.530;-5.646;2023-05-15T07:46:20;102147.31;;;16.75
73761;BMP280;69240;43.530;-5.646;2023-05-15T07:48:46;102157.75;;;16.82
73761;BMP280;69240;43.530;-5.646;2023-05-15T07:51:11;102148.19;;;16.72
73761;BMP280;69240;43.530;-5.646;2023-05-15T07:53:37;102137.78;;;16.65
73761;BMP280;69240;43.530;-5.646;2023-05-15T07:56:05;102143.56;;;16.72
73761;BMP280;69240;43.530;-5.646;2023-05-15T07:58:30;102150.28;;;16.77
73761;BMP280;69240;43.530;-5.646;2023-05-15T08:00:59;102138.16;;;16.72
73761;BMP280;69240;43.530;-5.646;2023-05-15T08:03:25;102132.69;;;16.58
73761;BMP280;69240;43.530;-5.646;2023-05-15T08:05:50;102142.41;;;16.64
73761;BMP280;69240;43.530;-5.646;2023-05-15T08:08:16;102136.97;;;16.50
73761;BMP280;69240;43.530;-5.646;2023-05-15T08:10:41;102134.31;;;16.41
73761;BMP280;69240;43.530;-5.646;2023-05-15T08:13:07;102135.41;;;16.34
73761;BMP280;69240;43.530;-5.646;2023-05-15T08:15:32;102135.91;;;16.24
73761;BMP280;69240;43.530;-5.646;2023-05-15T08:17:58;102136.97;;;15.85
73761;BMP280;69240;43.530;-5.646;2023-05-15T08:20:23;102141.41;;;16.06
73761;BMP280;69240;43.530;-5.646;2023-05-15T08:22:49;102149.19;;;16.36
73761;BMP280;69240;43.530;-5.646;2023-05-15T08:25:15;102147.94;;;16.46
73761;BMP280;69240;43.530;-5.646;2023-05-15T08:27:40;102149.41;;;16.24
73761;BMP280;69240;43.530;-5.646;2023-05-15T08:30:06;102148.84;;;16.11
73761;BMP280;69240;43.530;-5.646;2023-05-15T08:32:32;102161.00;;;16.48
73761;BMP280;69240;43.530;-5.646;2023-05-15T08:34:58;102161.00;;;16.48
73761;BMP280;69240;43.530;-5.646;2023-05-15T08:37:23;102152.78;;;16.10
73761;BMP280;69240;43.530;-5.646;2023-05-15T08:39:49;102154.91;;;15.97
73761;BMP280;69240;43.530;-5.646;2023-05-15T08:42:29;102151.88;;;16.13
73761;BMP280;69240;43.530;-5.646;2023-05-15T08:44:57;102157.53;;;16.24
73761;BMP280;69240;43.530;-5.646;2023-05-15T08:47:27;102159.00;;;16.25
73761;BMP280;69240;43.530;-5.646;2023-05-15T08:50:12;102160.75;;;16.37
73761;BMP280;69240;43.530;-5.646;2023-05-15T08:52:40;102169.72;;;16.43
73761;BMP280;69240;43.530;-5.646;2023-05-15T08:55:08;102166.41;;;16.48
73761;BMP280;69240;43.530;-5.646;2023-05-15T08:57:35;102163.19;;;16.26
73761;BMP280;69240;43.530;-5.646;2023-05-15T09:00:02;102158.66;;;16.32
73761;BMP280;69240;43.530;-5.646;2023-05-15T09:02:29;102161.16;;;16.44
73761;BMP280;69240;43.530;-5.646;2023-05-15T09:04:55;102168.50;;;16.76
73761;BMP280;69240;43.530;-5.646;2023-05-15T09:07:21;102171.09;;;16.62
73761;BMP280;69240;43.530;-5.646;2023-05-15T09:09:47;102177.19;;;16.95
73761;BMP280;69240;43.530;-5.646;2023-05-15T09:12:14;102169.16;;;16.86
73761;BMP280;69240;43.530;-5.646;2023-05-15T09:14:41;102178.38;;;16.94
73761;BMP280;69240;43.530;-5.646;2023-05-15T09:17:10;102183.03;;;17.45
73761;BMP280;69240;43.530;-5.646;2023-05-15T09:19:38;102177.44;;;17.35
73761;BMP280;69240;43.530;-5.646;2023-05-15T09:22:17;102177.28;;;17.52
73761;BMP280;69240;43.530;-5.646;2023-05-15T09:24:47;102180.81;;;17.73
73761;BMP280;69240;43.530;-5.646;2023-05-15T09:27:15;102196.88;;;17.76
73761;BMP280;69240;43.530;-5.646;2023-05-15T09:29:41;102178.94;;;17.64
73761;BMP280;69240;43.530;-5.646;2023-05-15T09:32:09;102183.69;;;17.69
73761;BMP280;69240;43.530;-5.646;2023-05-15T09:34:39;102179.75;;;17.70
73761;BMP280;69240;43.530;-5.646;2023-05-15T09:37:08;102191.81;;;17.55
73761;BMP280;69240;43.530;-5.646;2023-05-15T09:39:41;102183.38;;;17.10
73761;BMP280;69240;43.530;-5.646;2023-05-15T09:42:12;102192.47;;;16.98
73761;BMP280;69240;43.530;-5.646;2023-05-15T09:44:42;102180.47;;;16.61
73761;BMP280;69240;43.530;-5.646;2023-05-15T09:47:09;102181.00;;;16.65
73761;BMP280;69240;43.530;-5.646;2023-05-15T09:49:35;102178.69;;;16.49
73761;BMP280;69240;43.530;-5.646;2023-05-15T09:52:01;102182.94;;;16.41
73761;BMP280;69240;43.530;-5.646;2023-05-15T09:54:27;102188.63;;;16.43
73761;BMP280;69240;43.530;-5.646;2023-05-15T09:57:06;102182.22;;;16.40
73761;BMP280;69240;43.530;-5.646;2023-05-15T09:59:32;102189.41;;;16.67
73761;BMP280;69240;43.530;-5.646;2023-05-15T10:01:58;102197.38;;;17.23
73761;BMP280;69240;43.530;-5.646;2023-05-15T10:04:23;102203.75;;;17.20
73761;BMP280;69240;43.530;-5.646;2023-05-15T10:06:49;102209.44;;;17.22
73761;BMP280;69240;43.530;-5.646;2023-05-15T10:09:14;102207.88;;;17.58
73761;BMP280;69240;43.530;-5.646;2023-05-15T10:11:49;102207.50;;;17.65
73761;BMP280;69240;43.530;-5.646;2023-05-15T10:14:16;102203.59;;;17.95
73761;BMP280;69240;43.530;-5.646;2023-05-15T10:16:42;102203.16;;;18.17
73761;BMP280;69240;43.530;-5.646;2023-05-15T10:19:10;102211.81;;;18.55
73761;BMP280;69240;43.530;-5.646;2023-05-15T10:21:39;102204.97;;;18.25
73761;BMP280;69240;43.530;-5.646;2023-05-15T10:24:05;102210.13;;;17.74
73761;BMP280;69240;43.530;-5.646;2023-05-15T10:26:39;102212.63;;;18.61
73761;BMP280;69240;43.530;-5.646;2023-05-15T10:29:11;102205.97;;;18.62
73761;BMP280;69240;43.530;-5.646;2023-05-15T10:31:37;102201.19;;;18.17
73761;BMP280;69240;43.530;-5.646;2023-05-15T10:34:04;102210.25;;;18.14
73761;BMP280;69240;43.530;-5.646;2023-05-15T10:36:35;102201.53;;;17.90
73761;BMP280;69240;43.530;-5.646;2023-05-15T10:39:06;102210.75;;;17.98
73761;BMP280;69240;43.530;-5.646;2023-05-15T10:41:35;102208.19;;;18.24
73761;BMP280;69240;43.530;-5.646;2023-05-15T10:44:01;102207.44;;;18.43
73761;BMP280;69240;43.530;-5.646;2023-05-15T10:46:29;102213.84;;;19.00
73761;BMP280;69240;43.530;-5.646;2023-05-15T10:48:57;102215.19;;;18.90
73761;BMP280;69240;43.530;-5.646;2023-05-15T10:51:25;102216.41;;;18.69
73761;BMP280;69240;43.530;-5.646;2023-05-15T10:53:52;102221.13;;;18.34
73761;BMP280;69240;43.530;-5.646;2023-05-15T10:56:18;102217.63;;;18.48
73761;BMP280;69240;43.530;-5.646;2023-05-15T10:58:48;102227.88;;;18.59
73761;BMP280;69240;43.530;-5.646;2023-05-15T11:01:30;102233.13;;;18.48
73761;BMP280;69240;43.530;-5.646;2023-05-15T11:04:12;102225.13;;;18.19
73761;BMP280;69240;43.530;-5.646;2023-05-15T11:06:40;102227.78;;;18.33
73761;BMP280;69240;43.530;-5.646;2023-05-15T11:14:15;102236.47;;;18.57
73761;BMP280;69240;43.530;-5.646;2023-05-15T11:21:57;102237.94;;;18.38
73761;BMP280;69240;43.530;-5.646;2023-05-15T11:24:28;102238.22;;;18.40
73761;BMP280;69240;43.530;-5.646;2023-05-15T11:27:03;102233.63;;;18.66
73761;BMP280;69240;43.530;-5.646;2023-05-15T11:29:29;102239.19;;;18.57
73761;BMP280;69240;43.530;-5.646;2023-05-15T11:31:56;102234.91;;;18.16
73761;BMP280;69240;43.530;-5.646;2023-05-15T11:34:34;102237.19;;;17.60
73761;BMP280;69240;43.530;-5.646;2023-05-15T11:37:07;102242.81;;;17.85
73761;BMP280;69240;43.530;-5.646;2023-05-15T11:39:37;102250.81;;;17.94
73761;BMP280;69240;43.530;-5.646;2023-05-15T11:42:10;102239.31;;;18.48
73761;BMP280;69240;43.530;-5.646;2023-05-15T11:44:36;102241.72;;;19.26
73761;BMP280;69240;43.530;-5.646;2023-05-15T11:47:02;102241.41;;;19.75
73761;BMP280;69240;43.530;-5.646;2023-05-15T11:49:27;102232.84;;;20.19
73761;BMP280;69240;43.530;-5.646;2023-05-15T11:51:53;102231.84;;;20.22
73761;BMP280;69240;43.530;-5.646;2023-05-15T11:54:19;102227.66;;;20.26
73761;BMP280;69240;43.530;-5.646;2023-05-15T11:56:45;102238.53;;;20.68
73761;BMP280;69240;43.530;-5.646;2023-05-15T11:59:14;102244.16;;;20.59
73761;BMP280;69240;43.530;-5.646;2023-05-15T12:01:40;102238.34;;;19.93
73761;BMP280;69240;43.530;-5.646;2023-05-15T12:04:13;102237.38;;;19.96
73761;BMP280;69240;43.530;-5.646;2023-05-15T12:06:40;102245.84;;;20.09
73761;BMP280;69240;43.530;-5.646;2023-05-15T12:09:14;102246.97;;;20.28
73761;BMP280;69240;43.530;-5.646;2023-05-15T12:11:47;102243.31;;;20.42
73761;BMP280;69240;43.530;-5.646;2023-05-15T12:14:13;102229.34;;;20.60
73761;BMP280;69240;43.530;-5.646;2023-05-15T12:16:39;102229.13;;;20.69
73761;BMP280;69240;43.530;-5.646;2023-05-15T12:19:04;102225.41;;;20.72
73761;BMP280;69240;43.530;-5.646;2023-05-15T12:21:30;102233.72;;;20.47
73761;BMP280;69240;43.530;-5.646;2023-05-15T12:23:56;102226.69;;;19.82
73761;BMP280;69240;43.530;-5.646;2023-05-15T12:26:21;102230.88;;;19.26
73761;BMP280;69240;43.530;-5.646;2023-05-15T12:28:49;102223.97;;;19.25
73761;BMP280;69240;43.530;-5.646;2023-05-15T12:31:15;102222.56;;;19.35
73761;BMP280;69240;43.530;-5.646;2023-05-15T12:33:42;102230.97;;;19.37
73761;BMP280;69240;43.530;-5.646;2023-05-15T12:36:08;102226.34;;;18.72
73761;BMP280;69240;43.530;-5.646;2023-05-15T12:38:35;102230.09;;;18.40
73761;BMP280;69240;43.530;-5.646;2023-05-15T12:41:00;102240.94;;;17.91
73761;BMP280;69240;43.530;-5.646;2023-05-15T12:43:26;102232.38;;;18.27
73761;BMP280;69240;43.530;-5.646;2023-05-15T12:45:55;102242.00;;;18.28
73761;BMP280;69240;43.530;-5.646;2023-05-15T12:48:30;102240.38;;;17.58
73761;BMP280;69240;43.530;-5.646;2023-05-15T12:51:03;102247.25;;;18.17
73761;BMP280;69240;43.530;-5.646;2023-05-15T12:53:31;102244.47;;;18.46
73761;BMP280;69240;43.530;-5.646;2023-05-15T12:55:58;102249.72;;;19.35
73761;BMP280;69240;43.530;-5.646;2023-05-15T12:58:25;102255.00;;;19.75
73761;BMP280;69240;43.530;-5.646;2023-05-15T13:00:50;102253.00;;;20.43
73761;BMP280;69240;43.530;-5.646;2023-05-15T13:03:19;102255.50;;;20.52
73761;BMP280;69240;43.530;-5.646;2023-05-15T13:05:46;102247.38;;;20.58
73761;BMP280;69240;43.530;-5.646;2023-05-15T13:08:16;102245.81;;;21.04
73761;BMP280;69240;43.530;-5.646;2023-05-15T13:10:41;102250.06;;;21.60
73761;BMP280;69240;43.530;-5.646;2023-05-15T13:13:07;102254.75;;;21.21
73761;BMP280;69240;43.530;-5.646;2023-05-15T13:15:36;102254.75;;;21.32
73761;BMP280;69240;43.530;-5.646;2023-05-15T13:20:38;102244.34;;;21.69
73761;BMP280;69240;43.530;-5.646;2023-05-15T13:23:15;102242.13;;;21.29
73761;BMP280;69240;43.530;-5.646;2023-05-15T13:25:41;102248.81;;;21.39
73761;BMP280;69240;43.530;-5.646;2023-05-15T13:28:08;102239.81;;;20.89
73761;BMP280;69240;43.530;-5.646;2023-05-15T13:30:38;102248.31;;;21.24
73761;BMP280;69240;43.530;-5.646;2023-05-15T13:33:06;102253.50;;;21.27
73761;BMP280;69240;43.530;-5.646;2023-05-15T13:35:32;102245.59;;;21.24
73761;BMP280;69240;43.530;-5.646;2023-05-15T13:37:58;102252.72;;;20.94
73761;BMP280;69240;43.530;-5.646;2023-05-15T13:40:24;102253.81;;;20.60
73761;BMP280;69240;43.530;-5.646;2023-05-15T13:42:51;102248.06;;;21.33
73761;BMP280;69240;43.530;-5.646;2023-05-15T13:45:16;102252.28;;;21.67
73761;BMP280;69240;43.530;-5.646;2023-05-15T13:47:42;102247.06;;;21.36
73761;BMP280;69240;43.530;-5.646;2023-05-15T13:50:09;102249.78;;;21.14
73761;BMP280;69240;43.530;-5.646;2023-05-15T13:52:36;102252.31;;;21.34
73761;BMP280;69240;43.530;-5.646;2023-05-15T13:55:02;102246.56;;;21.21
73761;BMP280;69240;43.530;-5.646;2023-05-15T13:57:29;102255.44;;;20.94
73761;BMP280;69240;43.530;-5.646;2023-05-15T13:59:55;102249.03;;;21.14
73761;BMP280;69240;43.530;-5.646;2023-05-15T14:02:21;102255.16;;;20.92
73761;BMP280;69240;43.530;-5.646;2023-05-15T14:04:51;102254.19;;;20.95
73761;BMP280;69240;43.530;-5.646;2023-05-15T14:07:16;102251.47;;;20.95
73761;BMP280;69240;43.530;-5.646;2023-05-15T14:09:42;102256.66;;;20.93
73761;BMP280;69240;43.530;-5.646;2023-05-15T14:12:07;102251.75;;;21.08